メインページ
METAR-TAF:

METAR-TAF

空港 :

シーラーズ国際空港

シーラーズ, イラン

緯度: 29-32N, 経度: 052-35E, 海抜: 1486m

現時点の気象観測

当レポートは37分前の14:30(UTC)に作成
無風
気温 11°C
湿度 37%
気圧 1023 hPa
視程10km以上
1,500メートル以下は雲なし、積乱雲なし

METAR: OISS 181430Z 00000KT CAVOK 11/M03 Q1023 A3022

時間: 18:37 (15:07 UTC)

予報

当レポートは3時間22分前の11:45(UTC)に作成
予報は18日の 12時(UTC)から 19日の 18時(UTC)まで有効
北西の風 6kt
視程: 8000m
高度4000ftの雲は散在している
18日の 12時(UTC)から 18日の 16時(UTC)まで一時的に
西の風 12kt

TAF: OISS 181145Z 1812/1918 32003MPS 8000 SCT040 TEMPO 1812/1816 26006MPS

4,000以上の空港の気象観測と天気予報(METAR報とTAF報)

利用可能な観測所は地図上に黄色い丸と赤い丸で示す。

丸の上にカーソルを重ねると観測所名を参照できる。

次にクリックすると気象観測と天気予報を参照できる。

マップの切り替え:黒色「×」印の緑ボタンをクリックして拡大、「-」印の緑ボタンをクリックして縮小、緑色の三角印をクリックして隣りの地図に切り替え


METAR-TAF: